Time,TemperatureF,DewpointF,PressureIn,WindDirection,WindDirectionDegrees,WindSpeedMPH,WindSpeedGustMPH,Humidity,HourlyPrecipIn,Conditions,Clouds,dailyrainin,SoftwareType,DateUTC
2013-03-10 00:04:00,77.7,71.8,29.59,South,180,2.7,3.8,82,0.00,,,0.00,VWS V14.01,2013-03-09 14:04:00,
2013-03-10 00:09:00,77.7,71.8,29.59,SW,225,2.7,2.7,82,0.00,,,0.00,VWS V14.01,2013-03-09 14:09:00,
2013-03-10 00:14:00,77.4,71.4,29.59,SSE,158,3.6,3.6,82,0.00,,,0.00,VWS V14.01,2013-03-09 14:14:00,
2013-03-10 00:19:00,77.2,71.6,29.59,SSE,158,5.6,5.6,83,0.00,,,0.00,VWS V14.01,2013-03-09 14:19:00,
2013-03-10 00:24:00,77.4,71.8,29.59,SSE,158,3.6,3.6,83,0.00,,,0.00,VWS V14.01,2013-03-09 14:24:00,
2013-03-10 00:29:00,77.4,71.8,29.59,ESE,112,2.5,4.9,83,0.00,,,0.00,VWS V14.01,2013-03-09 14:29:00,
2013-03-10 00:34:00,77.5,72.0,29.59,SE,135,1.1,2.0,83,0.00,,,0.00,VWS V14.01,2013-03-09 14:34:00,
2013-03-10 00:39:00,77.5,72.0,29.59,SSE,158,3.4,3.4,83,0.00,,,0.00,VWS V14.01,2013-03-09 14:39:00,
2013-03-10 00:44:00,77.2,71.6,29.59,SSE,158,5.4,5.4,83,0.00,,,0.00,VWS V14.01,2013-03-09 14:44:00,
2013-03-10 00:49:00,77.2,71.6,29.59,SSE,158,6.0,7.6,83,0.00,,,0.00,VWS V14.01,2013-03-09 14:49:00,
2013-03-10 00:54:00,77.2,71.6,29.59,South,180,3.8,3.8,83,0.00,,,0.00,VWS V14.01,2013-03-09 14:54:00,
2013-03-10 00:59:00,77.4,71.8,29.59,ESE,112,2.5,2.5,83,0.00,,,0.00,VWS V14.01,2013-03-09 14:59:00,
2013-03-10 01:04:00,77.4,71.8,29.59,SW,225,3.4,3.4,83,0.04,,,0.04,VWS V14.01,2013-03-09 15:04:00,
2013-03-10 01:09:00,77.0,71.8,29.59,SSW,202,4.0,4.0,84,0.04,,,0.04,VWS V14.01,2013-03-09 15:09:00,
2013-03-10 01:14:00,76.8,71.3,29.59,SE,135,4.9,4.9,83,0.04,,,0.04,VWS V14.01,2013-03-09 15:14:00,
2013-03-10 01:20:00,76.8,71.3,29.56,SSE,158,3.1,3.1,83,0.04,,,0.04,VWS V14.01,2013-03-09 15:20:00,
2013-03-10 01:25:00,76.6,71.4,29.56,SSE,158,3.8,3.8,84,0.04,,,0.04,VWS V14.01,2013-03-09 15:25:00,
2013-03-10 01:30:00,76.5,71.3,29.56,South,180,2.5,3.8,84,0.04,,,0.04,VWS V14.01,2013-03-09 15:30:00,
2013-03-10 01:35:00,76.5,71.6,29.56,SSE,158,4.0,4.0,85,0.04,,,0.04,VWS V14.01,2013-03-09 15:35:00,
2013-03-10 01:40:00,76.3,71.1,29.56,SSE,158,5.6,5.6,84,0.04,,,0.04,VWS V14.01,2013-03-09 15:40:00,
2013-03-10 01:45:00,76.3,71.1,29.56,ESE,112,4.3,4.3,84,0.04,,,0.04,VWS V14.01,2013-03-09 15:45:00,
2013-03-10 01:50:00,76.3,71.1,29.56,South,180,3.8,3.8,84,0.04,,,0.04,VWS V14.01,2013-03-09 15:50:00,
2013-03-10 01:55:00,76.3,71.4,29.56,South,180,2.0,2.0,85,0.04,,,0.04,VWS V14.01,2013-03-09 15:55:00,
2013-03-10 02:00:00,76.3,71.4,29.56,SSE,158,2.9,2.9,85,0.04,,,0.04,VWS V14.01,2013-03-09 16:00:00,
2013-03-10 02:05:00,76.3,71.4,29.56,SE,135,3.4,3.4,85,0.00,,,0.04,VWS V14.01,2013-03-09 16:05:00,
2013-03-10 02:10:00,76.3,71.4,29.56,SSE,158,2.9,2.9,85,0.00,,,0.04,VWS V14.01,2013-03-09 16:10:00,
2013-03-10 02:15:00,76.5,71.3,29.56,SSE,158,1.3,1.3,84,0.00,,,0.04,VWS V14.01,2013-03-09 16:15:00,
2013-03-10 02:20:00,76.5,71.6,29.56,SE,135,0.0,0.0,85,0.00,,,0.04,VWS V14.01,2013-03-09 16:20:00,
2013-03-10 02:25:00,76.5,71.3,29.56,South,180,2.9,2.9,84,0.00,,,0.04,VWS V14.01,2013-03-09 16:25:00,
2013-03-10 02:30:00,76.3,71.1,29.56,South,180,2.2,2.2,84,0.00,,,0.04,VWS V14.01,2013-03-09 16:30:00,
2013-03-10 02:35:00,76.5,71.3,29.56,South,180,0.0,0.0,84,0.00,,,0.04,VWS V14.01,2013-03-09 16:35:00,
2013-03-10 02:40:00,76.5,71.3,29.56,SSE,158,0.0,0.0,84,0.00,,,0.04,VWS V14.01,2013-03-09 16:40:00,
2013-03-10 02:45:00,76.3,71.4,29.56,SSE,158,0.0,0.0,85,0.00,,,0.04,VWS V14.01,2013-03-09 16:45:00,
2013-03-10 02:50:00,76.3,71.4,29.53,SW,225,0.0,0.0,85,0.00,,,0.04,VWS V14.01,2013-03-09 16:50:00,
2013-03-10 02:55:00,76.3,71.4,29.53,SSW,202,0.0,0.0,85,0.00,,,0.04,VWS V14.01,2013-03-09 16:55:00,
2013-03-10 03:01:00,76.1,71.6,29.53,SE,135,0.0,0.0,86,0.00,,,0.04,VWS V14.01,2013-03-09 17:01:00,
2013-03-10 03:06:00,75.9,71.4,29.53,SSW,202,1.3,1.3,86,0.00,,,0.04,VWS V14.01,2013-03-09 17:06:00,
2013-03-10 03:11:00,75.9,71.4,29.56,South,180,0.0,0.0,86,0.00,,,0.04,VWS V14.01,2013-03-09 17:11:00,
2013-03-10 03:16:00,75.7,71.3,29.56,SSW,202,0.0,2.0,86,0.00,,,0.04,VWS V14.01,2013-03-09 17:16:00,
2013-03-10 03:21:00,75.7,71.3,29.53,SE,135,1.3,1.3,86,0.00,,,0.04,VWS V14.01,2013-03-09 17:21:00,
2013-03-10 03:26:00,75.6,71.1,29.53,SE,135,1.3,1.3,86,0.00,,,0.04,VWS V14.01,2013-03-09 17:26:00,
2013-03-10 03:31:00,75.6,71.4,29.53,SW,225,0.0,0.9,87,0.00,,,0.04,VWS V14.01,2013-03-09 17:31:00,
2013-03-10 03:36:00,75.6,71.4,29.53,SSW,202,0.0,0.0,87,0.00,,,0.04,VWS V14.01,2013-03-09 17:36:00,
2013-03-10 03:41:00,75.6,71.4,29.53,SE,135,2.0,2.0,87,0.00,,,0.04,VWS V14.01,2013-03-09 17:41:00,
2013-03-10 03:46:00,75.6,71.4,29.53,SE,135,1.1,1.1,87,0.00,,,0.04,VWS V14.01,2013-03-09 17:46:00,
2013-03-10 03:51:00,75.6,71.4,29.53,SSE,158,0.0,0.0,87,0.00,,,0.04,VWS V14.01,2013-03-09 17:51:00,
2013-03-10 03:56:00,75.4,71.2,29.53,SE,135,2.0,2.0,87,0.00,,,0.04,VWS V14.01,2013-03-09 17:56:00,
2013-03-10 04:01:00,75.4,71.2,29.53,WNW,292,0.0,0.9,87,0.00,,,0.04,VWS V14.01,2013-03-09 18:01:00,
2013-03-10 04:06:00,75.4,71.2,29.53,SW,225,0.0,0.0,87,0.00,,,0.04,VWS V14.01,2013-03-09 18:06:00,
2013-03-10 04:11:00,75.6,71.4,29.53,SW,225,0.0,0.0,87,0.00,,,0.04,VWS V14.01,2013-03-09 18:11:00,
2013-03-10 04:16:00,75.6,71.4,29.53,SW,225,2.2,2.2,87,0.00,,,0.04,VWS V14.01,2013-03-09 18:16:00,
2013-03-10 04:21:00,75.6,71.4,29.53,SW,225,0.0,0.0,87,0.00,,,0.04,VWS V14.01,2013-03-09 18:21:00,
2013-03-10 04:26:00,75.6,71.4,29.53,NNE,22,0.0,0.0,87,0.00,,,0.04,VWS V14.01,2013-03-09 18:26:00,
2013-03-10 04:31:00,75.6,71.4,29.53,SSW,202,0.0,0.0,87,0.00,,,0.04,VWS V14.01,2013-03-09 18:31:00,
2013-03-10 04:37:00,75.6,71.4,29.53,SSW,202,0.0,0.0,87,0.00,,,0.04,VWS V14.01,2013-03-09 18:37:00,
2013-03-10 04:42:00,75.4,71.2,29.53,SSE,158,2.0,2.9,87,0.00,,,0.04,VWS V14.01,2013-03-09 18:42:00,
2013-03-10 04:47:00,75.7,71.9,29.53,South,180,0.0,0.0,88,0.00,,,0.04,VWS V14.01,2013-03-09 18:47:00,
2013-03-10 04:52:00,75.7,71.9,29.53,SSW,202,1.3,1.3,88,0.00,,,0.04,VWS V14.01,2013-03-09 18:52:00,
2013-03-10 04:57:00,75.6,71.4,29.53,SSW,202,0.0,0.0,87,0.00,,,0.04,VWS V14.01,2013-03-09 18:57:00,
2013-03-10 05:02:00,75.6,71.4,29.53,SSW,202,0.0,0.0,87,0.00,,,0.04,VWS V14.01,2013-03-09 19:02:00,
2013-03-10 05:07:00,75.6,71.4,29.53,East,90,0.0,0.0,87,0.00,,,0.04,VWS V14.01,2013-03-09 19:07:00,
2013-03-10 05:12:00,75.6,71.8,29.53,SSE,158,0.0,0.0,88,0.00,,,0.04,VWS V14.01,2013-03-09 19:12:00,
2013-03-10 05:17:00,75.6,71.4,29.53,SSW,202,0.0,0.0,87,0.00,,,0.04,VWS V14.01,2013-03-09 19:17:00,
2013-03-10 05:22:00,75.7,71.6,29.53,SSW,202,0.0,0.0,87,0.00,,,0.04,VWS V14.01,2013-03-09 19:22:00,
2013-03-10 05:27:00,75.7,71.6,29.53,SSW,202,0.0,0.0,87,0.00,,,0.04,VWS V14.01,2013-03-09 19:27:00,
2013-03-10 05:32:00,75.6,71.4,29.53,SW,225,0.9,0.9,87,0.00,,,0.04,VWS V14.01,2013-03-09 19:32:00,
2013-03-10 05:37:00,75.6,71.4,29.53,SE,135,2.7,2.7,87,0.00,,,0.04,VWS V14.01,2013-03-09 19:37:00,
2013-03-10 05:42:00,75.6,71.4,29.53,SW,225,0.0,0.0,87,0.00,,,0.04,VWS V14.01,2013-03-09 19:42:00,
2013-03-10 05:47:00,75.2,71.1,29.53,South,180,1.3,4.0,87,0.00,,,0.04,VWS V14.01,2013-03-09 19:47:00,
2013-03-10 05:52:00,75.4,71.2,29.53,SSW,202,1.1,1.1,87,0.00,,,0.04,VWS V14.01,2013-03-09 19:52:00,
2013-03-10 05:57:00,75.2,71.1,29.53,SE,135,1.1,1.1,87,0.00,,,0.04,VWS V14.01,2013-03-09 19:57:00,
2013-03-10 06:02:00,75.2,71.1,29.53,SE,135,0.0,0.0,87,0.00,,,0.04,VWS V14.01,2013-03-09 20:02:00,
2013-03-10 06:08:00,75.2,71.4,29.53,SE,135,3.1,3.1,88,0.00,,,0.04,VWS V14.01,2013-03-09 20:08:00,
2013-03-10 06:13:00,75.2,71.4,29.53,SSE,158,3.4,3.4,88,0.00,,,0.04,VWS V14.01,2013-03-09 20:13:00,
2013-03-10 06:18:00,75.2,71.1,29.56,SE,135,1.3,4.3,87,0.00,,,0.04,VWS V14.01,2013-03-09 20:18:00,
2013-03-10 06:23:00,75.2,71.1,29.56,SSW,202,1.3,1.3,87,0.00,,,0.04,VWS V14.01,2013-03-09 20:23:00,
2013-03-10 06:28:00,75.4,71.2,29.56,SE,135,4.0,4.0,87,0.00,,,0.04,VWS V14.01,2013-03-09 20:28:00,
2013-03-10 06:33:00,75.4,71.2,29.53,SSE,158,2.7,3.4,87,0.00,,,0.04,VWS V14.01,2013-03-09 20:33:00,
2013-03-10 06:38:00,75.4,70.9,29.53,SE,135,2.5,2.5,86,0.00,,,0.04,VWS V14.01,2013-03-09 20:38:00,
2013-03-10 06:43:00,75.4,70.9,29.53,SSE,158,0.0,1.3,86,0.00,,,0.04,VWS V14.01,2013-03-09 20:43:00,
2013-03-10 06:48:00,75.2,70.7,29.56,SSE,158,0.9,0.9,86,0.00,,,0.04,VWS V14.01,2013-03-09 20:48:00,
2013-03-10 06:53:00,75.2,71.1,29.56,SW,225,2.0,2.0,87,0.00,,,0.04,VWS V14.01,2013-03-09 20:53:00,
2013-03-10 06:58:00,75.4,71.2,29.56,SSE,158,3.4,3.4,87,0.00,,,0.04,VWS V14.01,2013-03-09 20:58:00,
2013-03-10 07:03:00,75.4,70.9,29.56,ESE,112,2.9,3.1,86,0.00,,,0.04,VWS V14.01,2013-03-09 21:03:00,
2013-03-10 07:08:00,75.2,71.1,29.56,SSW,202,3.1,3.1,87,0.00,,,0.04,VWS V14.01,2013-03-09 21:08:00,
2013-03-10 07:13:00,75.4,70.9,29.56,SSW,202,3.1,3.1,86,0.00,,,0.04,VWS V14.01,2013-03-09 21:13:00,
2013-03-10 07:18:00,75.4,70.9,29.56,South,180,2.7,2.7,86,0.00,,,0.04,VWS V14.01,2013-03-09 21:18:00,
2013-03-10 07:23:00,75.4,70.9,29.56,SE,135,2.0,2.0,86,0.00,,,0.04,VWS V14.01,2013-03-09 21:23:00,
2013-03-10 07:28:00,75.4,70.9,29.56,South,180,2.2,2.2,86,0.00,,,0.04,VWS V14.01,2013-03-09 21:28:00,
2013-03-10 07:33:00,75.4,71.2,29.56,SW,225,3.1,3.1,87,0.00,,,0.04,VWS V14.01,2013-03-09 21:33:00,
2013-03-10 07:38:00,75.7,71.3,29.56,SW,225,0.0,0.0,86,0.00,,,0.04,VWS V14.01,2013-03-09 21:38:00,
2013-03-10 07:44:00,75.9,71.4,29.56,SSE,158,4.0,4.3,86,0.00,,,0.04,VWS V14.01,2013-03-09 21:44:00,
2013-03-10 07:49:00,76.1,71.6,29.56,SSE,158,2.5,2.5,86,0.00,,,0.04,VWS V14.01,2013-03-09 21:49:00,
2013-03-10 07:54:00,76.3,71.8,29.56,South,180,1.3,1.6,86,0.00,,,0.04,VWS V14.01,2013-03-09 21:54:00,
2013-03-10 07:59:00,76.5,72.0,29.56,SE,135,3.6,3.6,86,0.00,,,0.04,VWS V14.01,2013-03-09 21:59:00,
2013-03-10 08:04:00,76.6,72.1,29.56,SE,135,3.1,3.1,86,0.00,,,0.04,VWS V14.01,2013-03-09 22:04:00,
2013-03-10 08:09:00,77.2,72.7,29.56,ESE,112,0.0,0.0,86,0.00,,,0.04,VWS V14.01,2013-03-09 22:09:00,
2013-03-10 08:14:00,77.5,72.7,29.56,ESE,112,0.0,0.0,85,0.00,,,0.04,VWS V14.01,2013-03-09 22:14:00,
2013-03-10 08:19:00,78.3,73.0,29.56,SSE,158,2.7,2.7,84,0.00,,,0.04,VWS V14.01,2013-03-09 22:19:00,
2013-03-10 08:24:00,78.6,73.0,29.56,SE,135,2.7,2.7,83,0.00,,,0.04,VWS V14.01,2013-03-09 22:24:00,
2013-03-10 08:29:00,79.0,73.0,29.56,East,90,2.9,2.9,82,0.00,,,0.04,VWS V14.01,2013-03-09 22:29:00,
2013-03-10 08:34:00,79.2,72.8,29.59,ESE,112,2.7,2.7,81,0.00,,,0.04,VWS V14.01,2013-03-09 22:34:00,
2013-03-10 08:39:00,79.3,73.0,29.59,SE,135,2.5,3.1,81,0.00,,,0.04,VWS V14.01,2013-03-09 22:39:00,
2013-03-10 08:44:00,79.5,73.2,29.59,SE,135,3.4,3.4,81,0.00,,,0.04,VWS V14.01,2013-03-09 22:44:00,
2013-03-10 08:49:00,79.7,73.4,29.59,ENE,68,3.6,3.8,81,0.00,,,0.04,VWS V14.01,2013-03-09 22:49:00,
2013-03-10 08:54:00,80.1,73.3,29.59,SE,135,7.2,7.2,80,0.00,,,0.04,VWS V14.01,2013-03-09 22:54:00,
2013-03-10 08:59:00,80.4,73.3,29.59,SE,135,5.6,5.6,79,0.00,,,0.04,VWS V14.01,2013-03-09 22:59:00,
2013-03-10 09:04:00,80.6,73.1,29.59,SSW,202,4.0,4.0,78,0.00,,,0.04,VWS V14.01,2013-03-09 23:04:00,
2013-03-10 09:09:00,80.6,73.1,29.59,SE,135,3.4,4.3,78,0.00,,,0.04,VWS V14.01,2013-03-09 23:09:00,
2013-03-10 09:14:00,81.0,73.5,29.59,South,180,4.9,4.9,78,0.00,,,0.04,VWS V14.01,2013-03-09 23:14:00,
2013-03-10 09:20:00,81.0,73.5,29.59,SW,225,5.8,5.8,78,0.00,,,0.04,VWS V14.01,2013-03-09 23:20:00,
2013-03-10 09:25:00,80.8,73.3,29.59,SSE,158,6.0,6.0,78,0.00,,,0.04,VWS V14.01,2013-03-09 23:25:00,
2013-03-10 09:30:00,81.0,73.5,29.59,West,270,2.9,2.9,78,0.00,,,0.04,VWS V14.01,2013-03-09 23:30:00,
2013-03-10 09:35:00,81.3,73.8,29.59,SSE,158,7.8,7.8,78,0.00,,,0.04,VWS V14.01,2013-03-09 23:35:00,
2013-03-10 09:40:00,81.9,74.3,29.59,SSW,202,3.1,7.6,78,0.00,,,0.04,VWS V14.01,2013-03-09 23:40:00,
2013-03-10 09:45:00,81.9,73.9,29.59,South,180,6.0,6.0,77,0.00,,,0.04,VWS V14.01,2013-03-09 23:45:00,
2013-03-10 09:50:00,81.9,73.9,29.59,South,180,4.0,4.0,77,0.00,,,0.04,VWS V14.01,2013-03-09 23:50:00,
2013-03-10 09:55:00,82.9,74.6,29.59,South,180,7.2,7.2,76,0.00,,,0.04,VWS V14.01,2013-03-09 23:55:00,
2013-03-10 10:00:00,82.6,73.9,29.59,SW,225,7.2,11.0,75,0.00,,,0.04,VWS V14.01,2013-03-10 00:00:00,
2013-03-10 10:05:00,82.8,74.0,29.59,South,180,9.6,9.6,75,0.00,,,0.04,VWS V14.01,2013-03-10 00:05:00,
2013-03-10 10:10:00,82.8,74.0,29.59,SSE,158,4.3,4.3,75,0.00,,,0.04,VWS V14.01,2013-03-10 00:10:00,
2013-03-10 10:15:00,82.9,73.8,29.59,West,270,5.6,5.6,74,0.00,,,0.04,VWS V14.01,2013-03-10 00:15:00,
2013-03-10 10:20:00,82.9,73.8,29.59,East,90,0.0,3.6,74,0.00,,,0.04,VWS V14.01,2013-03-10 00:20:00,
2013-03-10 10:25:00,82.9,74.2,29.59,South,180,3.4,3.4,75,0.00,,,0.04,VWS V14.01,2013-03-10 00:25:00,
2013-03-10 10:30:00,82.8,74.0,29.59,South,180,3.8,3.8,75,0.00,,,0.04,VWS V14.01,2013-03-10 00:30:00,
2013-03-10 10:35:00,82.6,73.9,29.59,SW,225,6.3,6.3,75,0.00,,,0.04,VWS V14.01,2013-03-10 00:35:00,
2013-03-10 10:40:00,82.4,73.3,29.59,West,270,2.9,2.9,74,0.00,,,0.04,VWS V14.01,2013-03-10 00:40:00,
2013-03-10 10:45:00,82.2,73.9,29.59,SE,135,12.1,12.1,76,0.00,,,0.04,VWS V14.01,2013-03-10 00:45:00,
2013-03-10 10:50:00,81.9,73.6,29.59,South,180,3.8,3.8,76,0.00,,,0.04,VWS V14.01,2013-03-10 00:50:00,
2013-03-10 10:56:00,82.2,73.9,29.59,South,180,7.4,7.4,76,0.00,,,0.04,VWS V14.01,2013-03-10 00:56:00,
2013-03-10 11:01:00,82.6,74.2,29.59,South,180,3.8,10.3,76,0.00,,,0.04,VWS V14.01,2013-03-10 01:01:00,
2013-03-10 11:06:00,82.9,74.2,29.59,South,180,8.1,8.1,75,0.00,,,0.04,VWS V14.01,2013-03-10 01:06:00,
2013-03-10 11:11:00,83.3,74.6,29.59,SE,135,3.8,6.0,75,0.00,,,0.04,VWS V14.01,2013-03-10 01:11:00,
2013-03-10 11:16:00,83.1,74.4,29.59,South,180,6.0,10.5,75,0.00,,,0.04,VWS V14.01,2013-03-10 01:16:00,
2013-03-10 11:21:00,82.8,73.6,29.59,SE,135,4.0,8.1,74,0.00,,,0.04,VWS V14.01,2013-03-10 01:21:00,
2013-03-10 11:26:00,83.1,74.0,29.59,South,180,10.1,10.1,74,0.00,,,0.04,VWS V14.01,2013-03-10 01:26:00,
2013-03-10 11:31:00,82.4,73.3,29.59,ESE,112,6.0,6.0,74,0.00,,,0.04,VWS V14.01,2013-03-10 01:31:00,
2013-03-10 11:36:00,82.6,73.9,29.59,SE,135,3.1,4.3,75,0.00,,,0.04,VWS V14.01,2013-03-10 01:36:00,
2013-03-10 11:41:00,82.4,73.7,29.59,SE,135,8.1,8.1,75,0.00,,,0.04,VWS V14.01,2013-03-10 01:41:00,
2013-03-10 11:46:00,82.2,73.5,29.59,ESE,112,3.4,3.4,75,0.00,,,0.04,VWS V14.01,2013-03-10 01:46:00,
2013-03-10 11:51:00,82.4,73.7,29.56,East,90,2.2,2.2,75,0.00,,,0.04,VWS V14.01,2013-03-10 01:51:00,
2013-03-10 11:57:00,82.2,73.9,29.56,SE,135,0.0,0.0,76,0.00,,,0.04,VWS V14.01,2013-03-10 01:57:00,
2013-03-10 12:02:00,82.8,74.4,29.56,ESE,112,3.4,3.4,76,0.00,,,0.04,VWS V14.01,2013-03-10 02:02:00,
2013-03-10 12:07:00,82.8,74.4,29.56,NE,45,3.8,3.8,76,0.00,,,0.04,VWS V14.01,2013-03-10 02:07:00,
2013-03-10 12:12:00,82.9,73.8,29.56,ESE,112,2.9,2.9,74,0.00,,,0.04,VWS V14.01,2013-03-10 02:12:00,
2013-03-10 12:18:00,82.9,73.8,29.56,ESE,112,3.1,3.1,74,0.00,,,0.04,VWS V14.01,2013-03-10 02:18:00,
2013-03-10 12:23:00,82.8,74.0,29.56,NNE,22,7.4,7.4,75,0.00,,,0.04,VWS V14.01,2013-03-10 02:23:00,
2013-03-10 12:28:00,82.4,73.3,29.56,ESE,112,7.2,7.2,74,0.00,,,0.04,VWS V14.01,2013-03-10 02:28:00,
2013-03-10 12:33:00,82.4,73.7,29.56,SE,135,8.7,8.7,75,0.00,,,0.04,VWS V14.01,2013-03-10 02:33:00,
2013-03-10 12:38:00,82.9,73.4,29.56,South,180,6.3,6.3,73,0.00,,,0.04,VWS V14.01,2013-03-10 02:38:00,
2013-03-10 12:43:00,82.8,73.6,29.56,SSE,158,7.2,7.2,74,0.00,,,0.04,VWS V14.01,2013-03-10 02:43:00,
2013-03-10 12:48:00,82.9,73.8,29.56,SSE,158,3.8,3.8,74,0.00,,,0.04,VWS V14.01,2013-03-10 02:48:00,
2013-03-10 12:53:00,83.7,74.9,29.56,WSW,248,4.0,4.0,75,0.00,,,0.04,VWS V14.01,2013-03-10 02:53:00,
2013-03-10 12:58:00,84.0,74.8,29.56,SSW,202,4.9,4.9,74,0.00,,,0.04,VWS V14.01,2013-03-10 02:58:00,
2013-03-10 13:03:00,84.7,75.1,29.56,WSW,248,6.0,6.0,73,0.00,,,0.04,VWS V14.01,2013-03-10 03:03:00,
2013-03-10 13:08:00,84.6,74.5,29.56,SW,225,7.4,7.4,72,0.00,,,0.04,VWS V14.01,2013-03-10 03:08:00,
2013-03-10 13:13:00,84.0,73.6,29.56,SSW,202,6.5,6.5,71,0.00,,,0.04,VWS V14.01,2013-03-10 03:13:00,
2013-03-10 13:18:00,84.0,74.0,29.56,South,180,6.0,6.0,72,0.00,,,0.04,VWS V14.01,2013-03-10 03:18:00,
2013-03-10 13:23:00,84.2,73.8,29.56,SSW,202,3.6,3.6,71,0.00,,,0.04,VWS V14.01,2013-03-10 03:23:00,
2013-03-10 13:28:00,84.2,73.8,29.56,SW,225,5.8,5.8,71,0.00,,,0.04,VWS V14.01,2013-03-10 03:28:00,
2013-03-10 13:33:00,83.8,73.4,29.53,SW,225,2.7,2.9,71,0.00,,,0.04,VWS V14.01,2013-03-10 03:33:00,
2013-03-10 13:39:00,84.9,74.5,29.53,SE,135,5.4,5.4,71,0.00,,,0.04,VWS V14.01,2013-03-10 03:39:00,
2013-03-10 13:44:00,85.8,75.8,29.53,SE,135,3.6,3.6,72,0.00,,,0.04,VWS V14.01,2013-03-10 03:44:00,
2013-03-10 13:49:00,85.1,74.2,29.53,South,180,7.4,7.8,70,0.00,,,0.04,VWS V14.01,2013-03-10 03:49:00,
2013-03-10 13:54:00,84.7,73.9,29.53,SSE,158,4.9,4.9,70,0.00,,,0.04,VWS V14.01,2013-03-10 03:54:00,
2013-03-10 13:59:00,84.9,73.6,29.53,SSW,202,6.3,6.3,69,0.00,,,0.04,VWS V14.01,2013-03-10 03:59:00,
2013-03-10 14:04:00,85.6,74.3,29.50,South,180,6.5,6.5,69,0.00,,,0.04,VWS V14.01,2013-03-10 04:04:00,
2013-03-10 14:09:00,85.3,74.0,29.50,ESE,112,5.6,5.6,69,0.00,,,0.04,VWS V14.01,2013-03-10 04:09:00,
2013-03-10 14:14:00,83.3,74.2,29.50,ESE,112,3.6,4.0,74,0.00,,,0.04,VWS V14.01,2013-03-10 04:14:00,
2013-03-10 14:19:00,82.9,74.2,29.53,NE,45,3.4,3.4,75,0.00,,,0.04,VWS V14.01,2013-03-10 04:19:00,
2013-03-10 14:24:00,83.1,74.0,29.53,ESE,112,7.6,7.6,74,0.00,,,0.04,VWS V14.01,2013-03-10 04:24:00,
2013-03-10 14:29:00,83.3,73.8,29.53,ESE,112,3.6,5.4,73,0.00,,,0.04,VWS V14.01,2013-03-10 04:29:00,
2013-03-10 14:34:00,83.7,73.7,29.53,SSE,158,7.8,7.8,72,0.00,,,0.04,VWS V14.01,2013-03-10 04:34:00,
2013-03-10 14:39:00,82.9,73.4,29.53,South,180,8.1,8.1,73,0.00,,,0.04,VWS V14.01,2013-03-10 04:39:00,
2013-03-10 14:44:00,82.0,72.9,29.53,South,180,5.8,8.7,74,0.00,,,0.04,VWS V14.01,2013-03-10 04:44:00,
2013-03-10 14:49:00,81.9,73.2,29.53,SSW,202,5.8,7.8,75,0.00,,,0.04,VWS V14.01,2013-03-10 04:49:00,
2013-03-10 14:54:00,82.0,73.3,29.53,SSE,158,5.6,5.6,75,0.00,,,0.04,VWS V14.01,2013-03-10 04:54:00,
2013-03-10 14:59:00,82.2,73.1,29.53,SE,135,2.7,5.8,74,0.00,,,0.04,VWS V14.01,2013-03-10 04:59:00,
2013-03-10 15:00:00,82.2,73.1,29.53,SE,135,2.7,5.8,74,0.00,,,0.04,VWS V14.01,2013-03-10 05:00:00,
2013-03-10 15:01:00,82.2,73.1,29.53,South,180,8.1,8.1,74,0.00,,,0.04,VWS V14.01,2013-03-10 05:01:00,
2013-03-10 15:05:00,82.4,73.3,29.53,SSW,202,4.7,4.7,74,0.00,,,0.04,VWS V14.01,2013-03-10 05:05:00,
2013-03-10 15:10:00,82.2,73.1,29.53,South,180,15.4,15.4,74,0.00,,,0.04,VWS V14.01,2013-03-10 05:10:00,
2013-03-10 15:15:00,82.2,73.1,29.53,SSW,202,6.5,7.8,74,0.00,,,0.04,VWS V14.01,2013-03-10 05:15:00,
2013-03-10 15:20:00,82.0,72.5,29.53,SW,225,7.4,7.6,73,0.00,,,0.04,VWS V14.01,2013-03-10 05:20:00,
2013-03-10 15:25:00,82.2,72.3,29.53,South,180,5.8,5.8,72,0.00,,,0.04,VWS V14.01,2013-03-10 05:25:00,
2013-03-10 15:30:00,82.0,71.7,29.53,South,180,5.8,5.8,71,0.00,,,0.04,VWS V14.01,2013-03-10 05:30:00,
2013-03-10 15:35:00,82.2,71.9,29.50,SW,225,9.6,9.6,71,0.00,,,0.04,VWS V14.01,2013-03-10 05:35:00,
2013-03-10 15:40:00,82.8,72.4,29.50,South,180,7.8,7.8,71,0.00,,,0.04,VWS V14.01,2013-03-10 05:40:00,
2013-03-10 15:45:00,83.1,72.8,29.50,SSE,158,4.7,4.7,71,0.00,,,0.04,VWS V14.01,2013-03-10 05:45:00,
2013-03-10 15:50:00,83.5,73.1,29.50,SSW,202,6.3,6.3,71,0.00,,,0.04,VWS V14.01,2013-03-10 05:50:00,
2013-03-10 15:55:00,83.7,72.8,29.50,SE,135,4.9,7.8,70,0.00,,,0.04,VWS V14.01,2013-03-10 05:55:00,
2013-03-10 16:00:00,84.0,73.2,29.50,East,90,7.2,8.1,70,0.00,,,0.04,VWS V14.01,2013-03-10 06:00:00,
2013-03-10 16:05:00,84.2,73.4,29.50,SE,135,4.9,6.5,70,0.00,,,0.04,VWS V14.01,2013-03-10 06:05:00,
2013-03-10 16:10:00,84.0,73.2,29.50,SE,135,3.8,4.0,70,0.00,,,0.04,VWS V14.01,2013-03-10 06:10:00,
2013-03-10 16:15:00,83.7,72.8,29.50,SSE,158,4.5,4.5,70,0.00,,,0.04,VWS V14.01,2013-03-10 06:15:00,
2013-03-10 16:20:00,83.7,72.8,29.50,ESE,112,4.9,4.9,70,0.00,,,0.04,VWS V14.01,2013-03-10 06:20:00,
2013-03-10 16:25:00,83.7,72.8,29.50,South,180,2.5,4.0,70,0.00,,,0.04,VWS V14.01,2013-03-10 06:25:00,
2013-03-10 16:30:00,83.3,72.5,29.50,South,180,7.8,7.8,70,0.00,,,0.04,VWS V14.01,2013-03-10 06:30:00,
2013-03-10 16:35:00,83.3,72.9,29.50,South,180,5.6,7.4,71,0.00,,,0.04,VWS V14.01,2013-03-10 06:35:00,
2013-03-10 16:41:00,83.3,72.9,29.50,South,180,2.7,2.7,71,0.00,,,0.04,VWS V14.01,2013-03-10 06:41:00,
2013-03-10 16:46:00,83.3,72.9,29.50,SW,225,4.0,8.1,71,0.00,,,0.04,VWS V14.01,2013-03-10 06:46:00,
2013-03-10 16:51:00,82.9,72.6,29.50,SW,225,3.1,5.6,71,0.00,,,0.04,VWS V14.01,2013-03-10 06:51:00,
2013-03-10 16:56:00,82.9,72.6,29.50,South,180,5.6,5.6,71,0.00,,,0.04,VWS V14.01,2013-03-10 06:56:00,
2013-03-10 17:01:00,82.9,72.6,29.50,South,180,4.3,4.3,71,0.00,,,0.04,VWS V14.01,2013-03-10 07:01:00,
2013-03-10 17:06:00,82.6,72.7,29.50,SE,135,1.3,6.3,72,0.00,,,0.04,VWS V14.01,2013-03-10 07:06:00,
2013-03-10 17:11:00,82.4,72.5,29.50,SSE,158,8.7,8.7,72,0.00,,,0.04,VWS V14.01,2013-03-10 07:11:00,
2013-03-10 17:16:00,82.2,72.7,29.50,SSE,158,6.3,6.3,73,0.00,,,0.04,VWS V14.01,2013-03-10 07:16:00,
2013-03-10 17:21:00,82.2,72.7,29.50,South,180,4.0,6.5,73,0.00,,,0.04,VWS V14.01,2013-03-10 07:21:00,
2013-03-10 17:26:00,82.2,72.7,29.50,WSW,248,7.4,7.4,73,0.00,,,0.04,VWS V14.01,2013-03-10 07:26:00,
2013-03-10 17:31:00,82.2,72.7,29.50,South,180,4.7,7.8,73,0.00,,,0.04,VWS V14.01,2013-03-10 07:31:00,
2013-03-10 17:36:00,82.2,72.7,29.50,SSW,202,3.6,3.6,73,0.00,,,0.04,VWS V14.01,2013-03-10 07:36:00,
2013-03-10 17:41:00,82.0,72.5,29.50,South,180,2.9,2.9,73,0.00,,,0.04,VWS V14.01,2013-03-10 07:41:00,
2013-03-10 17:46:00,82.0,72.5,29.50,SSE,158,6.3,6.3,73,0.00,,,0.04,VWS V14.01,2013-03-10 07:46:00,
2013-03-10 17:51:00,81.9,72.4,29.53,ESE,112,2.7,8.1,73,0.00,,,0.04,VWS V14.01,2013-03-10 07:51:00,
2013-03-10 17:56:00,81.9,72.4,29.53,SE,135,3.1,4.0,73,0.00,,,0.04,VWS V14.01,2013-03-10 07:56:00,
2013-03-10 18:01:00,81.7,72.2,29.53,SSE,158,3.8,3.8,73,0.00,,,0.04,VWS V14.01,2013-03-10 08:01:00,
2013-03-10 18:06:00,81.7,71.8,29.53,SSE,158,6.3,6.3,72,0.00,,,0.04,VWS V14.01,2013-03-10 08:06:00,
2013-03-10 18:11:00,81.5,72.0,29.53,SE,135,5.4,5.4,73,0.00,,,0.04,VWS V14.01,2013-03-10 08:11:00,
2013-03-10 18:17:00,81.5,71.6,29.53,SSE,158,3.6,3.6,72,0.00,,,0.04,VWS V14.01,2013-03-10 08:17:00,
2013-03-10 18:22:00,81.5,71.6,29.53,ENE,68,3.4,3.4,72,0.00,,,0.04,VWS V14.01,2013-03-10 08:22:00,
2013-03-10 18:27:00,81.5,71.6,29.53,SSW,202,5.8,5.8,72,0.00,,,0.04,VWS V14.01,2013-03-10 08:27:00,
2013-03-10 18:32:00,81.3,71.4,29.53,South,180,4.7,7.4,72,0.00,,,0.04,VWS V14.01,2013-03-10 08:32:00,
2013-03-10 18:37:00,81.3,71.4,29.53,SE,135,5.6,5.6,72,0.00,,,0.04,VWS V14.01,2013-03-10 08:37:00,
2013-03-10 18:42:00,81.3,71.4,29.53,South,180,5.8,5.8,72,0.00,,,0.04,VWS V14.01,2013-03-10 08:42:00,
2013-03-10 18:47:00,81.3,71.4,29.56,SSE,158,7.6,7.6,72,0.00,,,0.04,VWS V14.01,2013-03-10 08:47:00,
2013-03-10 18:52:00,81.1,71.3,29.56,South,180,5.4,10.5,72,0.00,,,0.04,VWS V14.01,2013-03-10 08:52:00,
2013-03-10 18:57:00,81.1,71.3,29.56,South,180,3.6,7.8,72,0.00,,,0.04,VWS V14.01,2013-03-10 08:57:00,
2013-03-10 19:02:00,81.0,71.1,29.56,South,180,7.6,7.6,72,0.00,,,0.04,VWS V14.01,2013-03-10 09:02:00,
2013-03-10 19:07:00,81.1,71.3,29.56,SE,135,5.6,6.9,72,0.00,,,0.04,VWS V14.01,2013-03-10 09:07:00,
2013-03-10 19:12:00,81.0,71.1,29.56,SSW,202,2.9,6.3,72,0.00,,,0.04,VWS V14.01,2013-03-10 09:12:00,
2013-03-10 19:17:00,81.0,71.1,29.56,South,180,10.5,13.0,72,0.00,,,0.04,VWS V14.01,2013-03-10 09:17:00,
2013-03-10 19:22:00,80.8,70.5,29.56,SSE,158,5.8,5.8,71,0.00,,,0.04,VWS V14.01,2013-03-10 09:22:00,
2013-03-10 19:27:00,80.8,70.9,29.56,South,180,4.3,6.3,72,0.00,,,0.04,VWS V14.01,2013-03-10 09:27:00,
2013-03-10 19:32:00,80.8,70.9,29.56,SSW,202,5.6,8.5,72,0.00,,,0.04,VWS V14.01,2013-03-10 09:32:00,
2013-03-10 19:37:00,80.8,70.5,29.56,SE,135,6.0,6.0,71,0.00,,,0.04,VWS V14.01,2013-03-10 09:37:00,
2013-03-10 19:42:00,80.6,70.3,29.56,South,180,7.8,7.8,71,0.00,,,0.04,VWS V14.01,2013-03-10 09:42:00,
2013-03-10 19:47:00,80.6,70.3,29.56,South,180,4.3,6.5,71,0.00,,,0.04,VWS V14.01,2013-03-10 09:47:00,
2013-03-10 19:53:00,80.6,70.3,29.56,SSE,158,6.3,6.3,71,0.00,,,0.04,VWS V14.01,2013-03-10 09:53:00,
2013-03-10 19:58:00,80.6,70.3,29.56,SE,135,3.8,3.8,71,0.00,,,0.04,VWS V14.01,2013-03-10 09:58:00,
2013-03-10 20:03:00,80.6,70.3,29.56,SSE,158,3.6,6.7,71,0.00,,,0.04,VWS V14.01,2013-03-10 10:03:00,
2013-03-10 20:08:00,80.6,70.3,29.56,SSW,202,7.6,7.6,71,0.00,,,0.04,VWS V14.01,2013-03-10 10:08:00,
2013-03-10 20:13:00,80.4,70.2,29.56,South,180,4.9,7.6,71,0.00,,,0.04,VWS V14.01,2013-03-10 10:13:00,
2013-03-10 20:18:00,80.4,70.2,29.56,WSW,248,5.8,5.8,71,0.00,,,0.04,VWS V14.01,2013-03-10 10:18:00,
2013-03-10 20:23:00,80.4,70.2,29.56,South,180,4.9,6.3,71,0.00,,,0.04,VWS V14.01,2013-03-10 10:23:00,
2013-03-10 20:28:00,80.4,70.2,29.56,South,180,5.6,5.6,71,0.00,,,0.04,VWS V14.01,2013-03-10 10:28:00,
2013-03-10 20:33:00,80.6,69.9,29.56,SSE,158,3.6,3.6,70,0.00,,,0.04,VWS V14.01,2013-03-10 10:33:00,
2013-03-10 20:38:00,80.6,69.9,29.56,SSE,158,2.5,3.1,70,0.00,,,0.04,VWS V14.01,2013-03-10 10:38:00,
2013-03-10 20:43:00,80.6,69.9,29.56,SSE,158,2.2,2.2,70,0.00,,,0.04,VWS V14.01,2013-03-10 10:43:00,
2013-03-10 20:48:00,80.4,70.2,29.59,SSE,158,4.9,4.9,71,0.00,,,0.04,VWS V14.01,2013-03-10 10:48:00,
2013-03-10 20:53:00,80.4,70.6,29.59,SE,135,2.5,2.5,72,0.00,,,0.04,VWS V14.01,2013-03-10 10:53:00,
2013-03-10 20:58:00,80.4,70.6,29.59,SSE,158,4.7,4.7,72,0.00,,,0.04,VWS V14.01,2013-03-10 10:58:00,
2013-03-10 21:03:00,80.2,70.4,29.59,SSE,158,2.5,2.5,72,0.00,,,0.04,VWS V14.01,2013-03-10 11:03:00,
2013-03-10 21:08:00,80.1,70.2,29.59,SSE,158,3.4,4.3,72,0.00,,,0.04,VWS V14.01,2013-03-10 11:08:00,
2013-03-10 21:13:00,79.9,70.1,29.59,SE,135,2.7,2.7,72,0.00,,,0.04,VWS V14.01,2013-03-10 11:13:00,
2013-03-10 21:19:00,79.7,69.9,29.59,SSW,202,2.5,2.5,72,0.00,,,0.04,VWS V14.01,2013-03-10 11:19:00,
2013-03-10 21:24:00,79.7,69.9,29.59,SSE,158,2.5,2.9,72,0.00,,,0.04,VWS V14.01,2013-03-10 11:24:00,
2013-03-10 21:29:00,79.7,69.9,29.59,South,180,3.4,3.4,72,0.00,,,0.04,VWS V14.01,2013-03-10 11:29:00,
2013-03-10 21:34:00,79.5,70.1,29.59,SSE,158,3.8,3.8,73,0.00,,,0.04,VWS V14.01,2013-03-10 11:34:00,
2013-03-10 21:39:00,79.3,69.9,29.59,SE,135,2.7,3.1,73,0.00,,,0.04,VWS V14.01,2013-03-10 11:39:00,
2013-03-10 21:44:00,79.3,69.9,29.59,SSE,158,2.5,2.5,73,0.00,,,0.04,VWS V14.01,2013-03-10 11:44:00,
2013-03-10 21:49:00,79.2,69.8,29.59,SSE,158,3.1,3.4,73,0.00,,,0.04,VWS V14.01,2013-03-10 11:49:00,
2013-03-10 21:54:00,79.2,69.8,29.59,South,180,2.5,3.1,73,0.00,,,0.04,VWS V14.01,2013-03-10 11:54:00,
2013-03-10 21:59:00,79.2,69.8,29.59,South,180,4.0,4.0,73,0.00,,,0.04,VWS V14.01,2013-03-10 11:59:00,
2013-03-10 22:04:00,79.0,69.6,29.59,South,180,3.1,3.1,73,0.00,,,0.04,VWS V14.01,2013-03-10 12:04:00,
2013-03-10 22:09:00,78.8,69.4,29.59,South,180,3.1,3.1,73,0.00,,,0.04,VWS V14.01,2013-03-10 12:09:00,
2013-03-10 22:14:00,78.8,69.4,29.59,SSW,202,3.6,3.6,73,0.00,,,0.04,VWS V14.01,2013-03-10 12:14:00,
2013-03-10 22:19:00,78.6,69.7,29.59,South,180,3.8,3.8,74,0.00,,,0.04,VWS V14.01,2013-03-10 12:19:00,
2013-03-10 22:24:00,78.4,69.5,29.59,SSE,158,3.4,3.4,74,0.00,,,0.04,VWS V14.01,2013-03-10 12:24:00,
2013-03-10 22:29:00,78.4,69.9,29.59,SE,135,3.1,3.1,75,0.00,,,0.04,VWS V14.01,2013-03-10 12:29:00,
2013-03-10 22:34:00,78.1,69.5,29.59,SSE,158,2.9,2.9,75,0.00,,,0.04,VWS V14.01,2013-03-10 12:34:00,
2013-03-10 22:39:00,78.1,69.5,29.59,SW,225,3.4,3.4,75,0.00,,,0.04,VWS V14.01,2013-03-10 12:39:00,
2013-03-10 22:44:00,78.1,69.5,29.59,South,180,2.7,2.7,75,0.00,,,0.04,VWS V14.01,2013-03-10 12:44:00,
2013-03-10 22:50:00,78.1,69.5,29.59,SSE,158,4.9,4.9,75,0.00,,,0.04,VWS V14.01,2013-03-10 12:50:00,
2013-03-10 22:55:00,77.7,69.2,29.59,SSE,158,4.0,4.0,75,0.00,,,0.04,VWS V14.01,2013-03-10 12:55:00,
2013-03-10 23:00:00,77.7,69.6,29.59,SSE,158,3.1,4.0,76,0.00,,,0.04,VWS V14.01,2013-03-10 13:00:00,
2013-03-10 23:05:00,77.7,69.2,29.59,SW,225,1.1,3.4,75,0.00,,,0.04,VWS V14.01,2013-03-10 13:05:00,
2013-03-10 23:10:00,77.7,69.2,29.59,South,180,2.7,2.7,75,0.00,,,0.04,VWS V14.01,2013-03-10 13:10:00,
2013-03-10 23:15:00,77.5,69.4,29.59,SW,225,3.8,5.6,76,0.00,,,0.04,VWS V14.01,2013-03-10 13:15:00,
2013-03-10 23:20:00,77.4,69.2,29.59,South,180,4.0,4.0,76,0.00,,,0.04,VWS V14.01,2013-03-10 13:20:00,
2013-03-10 23:25:00,77.2,69.0,29.59,SSE,158,4.0,5.6,76,0.00,,,0.04,VWS V14.01,2013-03-10 13:25:00,
2013-03-10 23:30:00,77.2,69.0,29.59,SSW,202,6.5,6.5,76,0.00,,,0.04,VWS V14.01,2013-03-10 13:30:00,
2013-03-10 23:35:00,77.2,69.0,29.56,SSW,202,4.9,4.9,76,0.00,,,0.04,VWS V14.01,2013-03-10 13:35:00,
2013-03-10 23:40:00,77.2,69.0,29.56,SSE,158,3.8,5.8,76,0.00,,,0.04,VWS V14.01,2013-03-10 13:40:00,
2013-03-10 23:45:00,77.2,69.0,29.56,SSW,202,3.4,5.4,76,0.00,,,0.04,VWS V14.01,2013-03-10 13:45:00,
2013-03-10 23:50:00,77.2,69.0,29.56,South,180,3.4,3.4,76,0.00,,,0.04,VWS V14.01,2013-03-10 13:50:00,
2013-03-10 23:55:00,77.4,69.2,29.56,SSW,202,3.1,3.1,76,0.00,,,0.04,VWS V14.01,2013-03-10 13:55:00,